Portada
METAR-TAF:

METAR-TAF

Aeropuertos :

Aeropuerto Internacional Jacinto Lara

Barquisimeto, Venezuela

latitud: 10-04N, longitud: 069-19W, altitud: 613 m

Observación

El informe se hizo hace 45 minutos, a las 00:00 UTC
Viento 4 kt del este
Temperatura 24°C
Humedad 83%
Presión 1013 hPa
Visibilidad 10 km o más
Cielo nuboso a una altura de 1600 ft

METAR: SVBM 170000Z 09004KT 9999 BKN016 24/21 Q1013

Hora: 20:45 (00:45 UTC)

Pronóstico

El informe se hizo hace 2 horas y 45 minutos, a las 22:00 UTC
Pronóstico válido del 17 a las 00 UTC al 18 a las 00 UTC
Viento 7 kt del este
Visibilidad 10 km o más
Escasas nubes a una altura de 1300 ft
Nubes dispersas a una altura de 7000 ft
Evolucionando progresivamente
del 17 a las 06 UTC al 17 a las 10 UTC
Viento 6 kt del sureste
Visibilidad: 7000 m
Cielo nuboso a una altura de 1300 ft
neblina

TAF: SVBM 162200Z 1700/1800 09007KT 9999 FEW013 SCT070 TX32/19Z TN22/08Z BECMG 1706/1710 14006KT 7000 BR BKN013

Observaciones y pronósticos meteorológicos de más de 4000 aeropuertos (mensajes METAR y TAF).

Los puntos amarillos y rojos representan las estaciones disponibles.

Ponga el ratón en el punto deseado para ver el nombre de la estación.

Haga clic para ver las observaciones y los pronósticos meteorológicos.

Para cambiar el mapa : haga clic en los botones verdes con una cruz de color negro para hacer un zoom, en el botón verde con un guión para alejar o en las flechas verdes para mapas adyacentes.


METAR-TAF: